Brest-pilote — FN9820 — position and weather

sailwx.info

Track history (hours):
 
Tides and Currents Weather Stations Pressure Air Temp Water Temp Dewpoint Dewpoint Depression Visibility Wind Speed Wind Dir Waves Ship Positions

Brest-pilote

Last reported at 2018-Feb-20 08:00 UTC. Time now 2018-Feb-24 02:44 UTC.
Position N 48°23' W 004°26'.

Length 14 m.

Type: Pilot. MMSI: 227005550.

Date/timePositionNaut miles runAvg speedWind from/ knotsBaromVisibWave heightAir tempDewpointWater temp
2018-Feb-20 08:00N 48°23' W 004°26'  
2018-Feb-17 17:11N 48°23' W 004°29'2 8.7
2018-Feb-17 17:00N 48°22' W 004°31'1 1.7
2018-Feb-17 16:31N 48°21' W 004°32'2 0.5
2018-Feb-17 11:37N 48°23' W 004°29'214.5
2018-Feb-17 11:30N 48°22' W 004°31'1 1.2
2018-Feb-17 11:00N 48°22' W 004°30'1 0.0
2018-Feb-15 18:37N 48°23' W 004°29'110.9
2018-Feb-15 18:30N 48°22' W 004°30'2 4.5
2018-Feb-15 18:01N 48°21' W 004°33'1 2.6
2018-Feb-15 17:30N 48°21' W 004°31'2 0.1
2018-Feb-14 20:36N 48°23' W 004°29'111.2
2018-Feb-14 20:30N 48°22' W 004°29'2 4.0
2018-Feb-14 20:01N 48°23' W 004°27'1 0.9
2018-Feb-14 18:37N 48°23' W 004°29'111.5
2018-Feb-14 18:30N 48°23' W 004°27'3 5.5
2018-Feb-14 18:01N 48°22' W 004°31'  
Track history (hours):
 
Tides and Currents Weather Stations Pressure Air Temp Water Temp Dewpoint Dewpoint Depression Visibility Wind Speed Wind Dir Waves Ship Positions

Brest-pilote

Last reported at 2018-Feb-20 08:00 UTC. Time now 2018-Feb-24 02:44 UTC.
Position N 48°23' W 004°26'.

Length 14 m.

Type: Pilot. MMSI: 227005550.

Date/timePositionNaut miles runAvg speedWind from/ knotsBaromVisibWave heightAir tempDewpointWater temp
2018-Feb-20 08:00N 48°23' W 004°26'  
2018-Feb-17 17:11N 48°23' W 004°29'2 8.7
2018-Feb-17 17:00N 48°22' W 004°31'1 1.7
2018-Feb-17 16:31N 48°21' W 004°32'2 0.5
2018-Feb-17 11:37N 48°23' W 004°29'214.5
2018-Feb-17 11:30N 48°22' W 004°31'1 1.2
2018-Feb-17 11:00N 48°22' W 004°30'1 0.0
2018-Feb-15 18:37N 48°23' W 004°29'110.9
2018-Feb-15 18:30N 48°22' W 004°30'2 4.5
2018-Feb-15 18:01N 48°21' W 004°33'1 2.6
2018-Feb-15 17:30N 48°21' W 004°31'2 0.1
2018-Feb-14 20:36N 48°23' W 004°29'111.2
2018-Feb-14 20:30N 48°22' W 004°29'2 4.0
2018-Feb-14 20:01N 48°23' W 004°27'1 0.9
2018-Feb-14 18:37N 48°23' W 004°29'111.5
2018-Feb-14 18:30N 48°23' W 004°27'3 5.5
2018-Feb-14 18:01N 48°22' W 004°31'  

Dump ship's entire track history